createdAt,value
2023-03-13T00:02:01.621Z,1.30
2023-03-13T00:04:28.421Z,1.60
2023-03-13T00:06:57.465Z,1.60
2023-03-13T00:09:24.483Z,1.50
2023-03-13T00:11:51.574Z,1.30
2023-03-13T00:14:18.668Z,1.50
2023-03-13T00:16:51.105Z,1.70
2023-03-13T00:19:17.868Z,1.60
2023-03-13T00:21:45.491Z,1.80
2023-03-13T00:24:16.655Z,2.00
2023-03-13T00:26:43.444Z,1.80
2023-03-13T00:29:11.116Z,1.30
2023-03-13T00:31:45.233Z,1.60
2023-03-13T00:34:12.122Z,1.60
2023-03-13T00:36:39.626Z,1.80
2023-03-13T00:39:07.622Z,1.90
2023-03-13T00:41:37.509Z,1.80
2023-03-13T00:44:07.694Z,1.30
2023-03-13T00:46:34.662Z,1.80
2023-03-13T00:49:02.199Z,1.80
2023-03-13T00:51:29.410Z,1.90
2023-03-13T00:53:56.840Z,2.10
2023-03-13T00:56:24.112Z,1.80
2023-03-13T00:58:51.067Z,1.50
2023-03-13T01:01:22.657Z,2.40
2023-03-13T01:03:51.565Z,1.90
2023-03-13T01:06:20.440Z,2.10
2023-03-13T01:08:47.894Z,2.30
2023-03-13T01:11:22.488Z,2.60
2023-03-13T01:13:50.183Z,2.20
2023-03-13T01:16:21.149Z,2.10
2023-03-13T01:18:54.531Z,1.70
2023-03-13T01:21:22.388Z,1.80
2023-03-13T01:23:49.316Z,2.00
2023-03-13T01:26:16.994Z,2.00
2023-03-13T01:28:50.931Z,1.60
2023-03-13T01:31:28.937Z,2.10
2023-03-13T01:34:00.469Z,1.70
2023-03-13T01:36:27.336Z,1.70
2023-03-13T01:38:56.150Z,1.90
2023-03-13T01:41:29.179Z,1.90
2023-03-13T01:43:57.623Z,2.00
2023-03-13T01:46:30.187Z,2.00
2023-03-13T01:49:10.884Z,1.90
2023-03-13T01:52:15.756Z,1.90
2023-03-13T01:55:04.317Z,1.80
2023-03-13T01:57:37.336Z,1.90
2023-03-13T02:00:09.856Z,1.90
2023-03-13T02:02:49.455Z,2.10
2023-03-13T02:05:19.746Z,1.90
2023-03-13T02:07:50.426Z,2.40
2023-03-13T02:10:17.692Z,1.80
2023-03-13T02:12:49.673Z,2.50
2023-03-13T02:15:19.481Z,2.10
2023-03-13T02:17:47.501Z,2.40
2023-03-13T02:20:15.191Z,2.30
2023-03-13T02:23:02.642Z,2.10
2023-03-13T02:25:35.284Z,2.50
2023-03-13T02:28:06.465Z,2.00
2023-03-13T02:30:35.931Z,2.10
2023-03-13T02:33:05.880Z,2.00
2023-03-13T02:35:39.723Z,2.30
2023-03-13T02:38:14.500Z,2.50
2023-03-13T02:43:21.509Z,2.80
2023-03-13T02:46:08.502Z,3.00
2023-03-13T02:48:46.441Z,2.90
2023-03-13T02:51:36.467Z,3.00
2023-03-13T02:54:20.513Z,3.20
2023-03-13T02:56:51.318Z,3.00
2023-03-13T02:59:20.704Z,3.70
2023-03-13T03:01:53.500Z,3.50
2023-03-13T03:04:23.648Z,3.60
2023-03-13T03:06:55.864Z,3.40
2023-03-13T03:09:26.066Z,2.90
2023-03-13T03:12:00.542Z,3.40
2023-03-13T03:14:29.927Z,3.50
2023-03-13T03:17:00.526Z,3.20
2023-03-13T03:22:02.793Z,3.60
2023-03-13T03:24:34.636Z,2.30
2023-03-13T03:27:05.635Z,2.40
2023-03-13T03:29:41.578Z,2.50
2023-03-13T03:38:29.331Z,1.90
2023-03-13T03:40:56.880Z,1.90
2023-03-13T03:43:24.144Z,1.60
2023-03-13T03:45:59.234Z,1.70
2023-03-13T03:48:26.609Z,1.50
2023-03-13T03:50:54.424Z,1.60
2023-03-13T03:53:22.446Z,1.60
2023-03-13T03:55:49.501Z,1.60
2023-03-13T03:58:16.648Z,1.80
2023-03-13T04:00:58.861Z,2.50
2023-03-13T04:03:26.430Z,2.10
2023-03-13T04:05:54.170Z,2.30
2023-03-13T04:08:25.464Z,2.40
2023-03-13T04:10:56.361Z,2.40
2023-03-13T04:13:25.652Z,2.10
2023-03-13T04:15:53.006Z,2.60
2023-03-13T04:18:21.647Z,2.30
2023-03-13T04:20:49.660Z,2.30
2023-03-13T04:23:17.016Z,2.60
2023-03-13T04:25:44.162Z,2.60
2023-03-13T04:28:12.045Z,2.50
2023-03-13T04:30:48.358Z,2.90
2023-03-13T04:33:48.722Z,2.90
2023-03-13T04:36:39.528Z,2.90
2023-03-13T04:39:30.976Z,2.90
2023-03-13T04:42:18.540Z,2.60
2023-03-13T04:45:11.317Z,3.00
2023-03-13T04:48:06.120Z,3.10
2023-03-13T04:50:46.686Z,3.80
2023-03-13T04:53:25.816Z,4.10
2023-03-13T04:56:41.139Z,3.90
2023-03-13T04:59:27.805Z,4.50
2023-03-13T05:02:27.658Z,3.70
2023-03-13T05:05:09.035Z,3.40
2023-03-13T05:11:02.747Z,3.00
2023-03-13T05:13:56.052Z,2.90
2023-03-13T05:16:50.642Z,2.50
2023-03-13T05:19:36.229Z,2.60
2023-03-13T05:22:18.735Z,3.00
2023-03-13T05:25:00.834Z,2.60
2023-03-13T05:27:47.846Z,2.40
2023-03-13T05:30:33.126Z,2.80
2023-03-13T05:33:23.415Z,2.20
2023-03-13T05:36:05.967Z,2.40
2023-03-13T05:38:42.082Z,2.50
2023-03-13T05:41:42.521Z,2.60
2023-03-13T05:44:29.598Z,2.40
2023-03-13T05:47:16.956Z,3.10
2023-03-13T05:49:50.955Z,3.10
2023-03-13T05:52:38.487Z,3.50
2023-03-13T05:55:20.595Z,3.80
2023-03-13T05:57:47.645Z,3.80
2023-03-13T06:00:35.058Z,4.20
2023-03-13T06:03:25.669Z,4.40
2023-03-13T06:05:58.665Z,4.30
2023-03-13T06:08:40.013Z,4.20
2023-03-13T06:11:07.491Z,4.00
2023-03-13T06:13:34.417Z,4.30
2023-03-13T06:16:08.777Z,4.00
2023-03-13T06:18:44.512Z,4.30
2023-03-13T06:21:15.527Z,3.30
2023-03-13T06:23:46.693Z,3.70
2023-03-13T06:26:14.137Z,3.70
2023-03-13T06:28:45.505Z,4.20
2023-03-13T06:31:13.414Z,3.40
2023-03-13T06:33:40.405Z,3.70
2023-03-13T06:36:08.363Z,3.50
2023-03-13T06:38:35.404Z,3.60
2023-03-13T06:41:03.408Z,4.20
2023-03-13T06:43:30.436Z,3.40
2023-03-13T06:46:03.811Z,3.00
2023-03-13T06:48:31.034Z,3.30
2023-03-13T06:50:58.154Z,3.90
2023-03-13T06:53:25.575Z,3.90
2023-03-13T06:55:53.086Z,3.30
2023-03-13T06:58:31.606Z,3.30
2023-03-13T07:01:06.190Z,3.40
2023-03-13T07:03:34.108Z,3.50
2023-03-13T07:06:01.590Z,3.90
2023-03-13T07:08:29.093Z,4.60
2023-03-13T07:11:02.265Z,4.00
2023-03-13T07:13:30.325Z,3.60
2023-03-13T07:16:11.402Z,4.90
2023-03-13T07:18:46.815Z,4.30
2023-03-13T07:21:16.139Z,4.30
2023-03-13T07:23:43.552Z,3.90
2023-03-13T07:26:13.296Z,3.70
2023-03-13T07:28:40.991Z,3.40
2023-03-13T07:39:07.123Z,4.00
2023-03-13T07:41:34.508Z,3.60
2023-03-13T07:52:04.359Z,3.50
2023-03-13T07:54:34.389Z,3.70
2023-03-13T07:57:02.644Z,3.50
2023-03-13T07:59:29.617Z,3.50
2023-03-13T08:01:57.276Z,3.10
2023-03-13T08:04:24.342Z,3.60
2023-03-13T08:06:56.378Z,3.40
2023-03-13T08:09:24.679Z,3.40
2023-03-13T08:11:51.558Z,3.30
2023-03-13T08:14:18.428Z,3.30
2023-03-13T08:16:46.245Z,3.10
2023-03-13T08:19:13.363Z,3.10
2023-03-13T08:21:40.176Z,3.30
2023-03-13T08:24:08.761Z,3.80
2023-03-13T08:26:41.917Z,3.10
2023-03-13T08:29:11.121Z,3.30
2023-03-13T08:31:41.963Z,3.30
2023-03-13T08:34:10.331Z,3.30
2023-03-13T08:36:37.266Z,3.00
2023-03-13T08:39:14.903Z,3.10
2023-03-13T08:41:42.255Z,3.40
2023-03-13T08:44:10.884Z,3.20
2023-03-13T08:46:38.266Z,3.40
2023-03-13T08:49:06.049Z,3.20
2023-03-13T08:51:33.382Z,3.60
2023-03-13T08:54:00.380Z,3.20
2023-03-13T08:56:29.759Z,3.00
2023-03-13T08:59:00.619Z,3.60
2023-03-13T09:01:29.320Z,3.30
2023-03-13T09:03:56.805Z,3.10
2023-03-13T09:06:24.369Z,3.00
2023-03-13T09:08:58.331Z,3.00
2023-03-13T09:11:29.425Z,3.20
2023-03-13T09:14:00.522Z,3.30
2023-03-13T09:16:28.577Z,3.40
2023-03-13T09:18:55.620Z,2.80
2023-03-13T09:21:26.850Z,3.20
2023-03-13T09:23:54.954Z,3.00
2023-03-13T09:26:23.476Z,2.90
2023-03-13T09:28:52.584Z,3.00
2023-03-13T09:31:22.658Z,3.00
2023-03-13T09:33:52.983Z,3.30
2023-03-13T09:36:22.631Z,3.20
2023-03-13T09:38:54.822Z,2.90
2023-03-13T09:41:36.441Z,3.40
2023-03-13T09:44:10.381Z,3.70
2023-03-13T09:46:59.476Z,3.30
2023-03-13T09:49:34.451Z,3.00
2023-03-13T09:52:26.590Z,3.30
2023-03-13T09:55:00.422Z,2.90
2023-03-13T09:57:35.714Z,3.30
2023-03-13T10:00:19.272Z,3.10
2023-03-13T10:03:05.470Z,3.00
2023-03-13T10:05:32.300Z,3.20
2023-03-13T10:08:18.576Z,3.20
2023-03-13T10:11:30.518Z,3.10
2023-03-13T10:14:02.222Z,3.00
2023-03-13T10:16:44.152Z,3.10
2023-03-13T10:19:14.900Z,3.30
2023-03-13T10:21:46.651Z,2.80
2023-03-13T10:24:19.022Z,3.70
2023-03-13T10:26:46.474Z,3.40
2023-03-13T10:29:21.098Z,3.10
2023-03-13T10:32:02.393Z,3.40
2023-03-13T10:34:56.592Z,3.40
2023-03-13T10:37:31.884Z,3.40
2023-03-13T10:40:22.311Z,3.30
2023-03-13T10:42:51.601Z,3.20
2023-03-13T10:45:21.117Z,2.60
2023-03-13T10:47:56.132Z,3.00
2023-03-13T10:50:24.639Z,3.10
2023-03-13T10:52:52.432Z,3.40
2023-03-13T10:55:20.779Z,3.10
2023-03-13T10:58:01.214Z,3.30
2023-03-13T11:00:33.502Z,3.30
2023-03-13T11:03:24.072Z,4.30
2023-03-13T11:06:29.018Z,3.10
2023-03-13T11:09:07.787Z,3.30
2023-03-13T11:11:53.041Z,3.00
2023-03-13T11:14:22.583Z,3.30
2023-03-13T11:16:52.113Z,3.10
2023-03-13T11:19:29.328Z,3.20
2023-03-13T11:22:14.378Z,3.10
2023-03-13T11:25:00.966Z,3.10
2023-03-13T11:27:49.360Z,3.30
2023-03-13T11:30:37.428Z,3.10
2023-03-13T11:33:05.368Z,3.20
2023-03-13T11:35:56.928Z,3.10
2023-03-13T11:38:28.648Z,3.10
2023-03-13T11:41:17.200Z,2.80
2023-03-13T11:44:14.820Z,3.00
2023-03-13T11:47:04.673Z,2.70
2023-03-13T11:49:49.533Z,2.90
2023-03-13T11:52:51.529Z,3.00
2023-03-13T11:55:22.444Z,2.80
2023-03-13T11:57:59.812Z,3.40
2023-03-13T12:00:36.774Z,3.00
2023-03-13T12:03:09.923Z,3.00
2023-03-13T12:05:58.350Z,3.10
2023-03-13T12:08:32.105Z,3.40
2023-03-13T12:11:17.850Z,3.10
2023-03-13T12:14:15.716Z,2.90
2023-03-13T12:16:51.694Z,2.90
2023-03-13T12:19:26.866Z,2.80
2023-03-13T12:21:54.674Z,2.80
2023-03-13T12:24:36.174Z,2.90
2023-03-13T12:27:17.339Z,2.90
2023-03-13T12:30:05.401Z,3.30
2023-03-13T12:32:38.141Z,3.10
2023-03-13T12:37:53.776Z,3.60
2023-03-13T12:40:28.901Z,3.10
2023-03-13T12:42:57.989Z,3.20
2023-03-13T12:45:25.549Z,3.30
2023-03-13T12:48:34.920Z,3.20
2023-03-13T12:51:04.795Z,3.30
2023-03-13T12:53:36.623Z,2.90
2023-03-13T12:56:30.938Z,3.10
2023-03-13T12:59:02.406Z,3.30
2023-03-13T13:01:29.766Z,3.40
2023-03-13T13:04:07.840Z,3.00
2023-03-13T13:06:51.023Z,2.80
2023-03-13T13:09:27.197Z,2.90
2023-03-13T13:12:00.420Z,2.90
2023-03-13T13:17:21.066Z,2.60
2023-03-13T13:19:50.442Z,2.70
2023-03-13T13:22:36.075Z,2.70
2023-03-13T13:25:12.210Z,2.50
2023-03-13T13:27:39.387Z,2.40
2023-03-13T13:30:19.426Z,2.80
2023-03-13T13:32:47.062Z,2.70
2023-03-13T13:35:31.682Z,2.70
2023-03-13T13:38:17.787Z,2.60
2023-03-13T13:41:10.408Z,2.60
2023-03-13T13:43:45.609Z,2.80
2023-03-13T13:46:29.812Z,2.60
2023-03-13T13:49:07.325Z,3.10
2023-03-13T13:51:38.659Z,2.00
2023-03-13T13:54:33.197Z,3.10
2023-03-13T13:57:01.151Z,3.10
2023-03-13T13:59:45.451Z,3.00
2023-03-13T14:02:15.951Z,3.30
2023-03-13T14:05:00.995Z,3.20
2023-03-13T14:07:41.139Z,3.00
2023-03-13T14:10:18.029Z,3.20
2023-03-13T14:12:52.969Z,3.30
2023-03-13T14:15:21.957Z,3.50
2023-03-13T14:17:53.689Z,3.10
2023-03-13T14:20:36.973Z,3.10
2023-03-13T14:23:05.891Z,3.00
2023-03-13T14:25:44.250Z,3.00
2023-03-13T14:28:16.499Z,3.40
2023-03-13T14:30:46.529Z,3.30
2023-03-13T14:33:16.458Z,3.40
2023-03-13T14:35:46.593Z,3.40
2023-03-13T14:38:22.845Z,3.30
2023-03-13T14:40:52.460Z,3.40
2023-03-13T14:43:47.882Z,3.10
2023-03-13T14:46:38.531Z,3.60
2023-03-13T14:49:19.138Z,3.60
2023-03-13T14:52:01.026Z,3.00
2023-03-13T14:54:37.622Z,3.30
2023-03-13T14:57:16.521Z,3.10
2023-03-13T14:59:46.838Z,3.50
2023-03-13T15:02:30.286Z,2.90
2023-03-13T15:05:06.802Z,3.00
2023-03-13T15:07:46.677Z,3.10
2023-03-13T15:10:22.735Z,3.20
2023-03-13T15:12:55.611Z,3.40
2023-03-13T15:15:24.970Z,3.00
2023-03-13T15:17:54.399Z,3.00
2023-03-13T15:20:24.535Z,3.20
2023-03-13T15:22:53.610Z,3.30
2023-03-13T15:25:23.922Z,3.40
2023-03-13T15:27:53.135Z,2.80
2023-03-13T15:38:44.045Z,3.00
2023-03-13T15:41:10.742Z,2.90
2023-03-13T15:43:37.756Z,2.50
2023-03-13T15:46:09.465Z,3.00
2023-03-13T15:48:41.062Z,3.00
2023-03-13T15:51:13.656Z,3.10
2023-03-13T15:53:41.301Z,2.60
2023-03-13T15:56:22.553Z,3.00
2023-03-13T15:58:49.750Z,3.30
2023-03-13T16:01:17.749Z,2.70
2023-03-13T16:03:44.926Z,2.70
2023-03-13T16:06:17.497Z,3.00
2023-03-13T16:08:46.838Z,3.30
2023-03-13T16:11:15.010Z,2.90
2023-03-13T16:13:42.890Z,2.80
2023-03-13T16:16:18.743Z,3.00
2023-03-13T16:18:46.871Z,2.80
2023-03-13T16:21:18.288Z,3.20
2023-03-13T16:23:45.779Z,3.00
2023-03-13T16:26:18.274Z,3.10
2023-03-13T16:28:45.937Z,2.50
2023-03-13T16:31:31.588Z,2.80
2023-03-13T16:33:59.095Z,2.70
2023-03-13T16:36:29.556Z,2.90
2023-03-13T16:38:57.267Z,2.90
2023-03-13T16:41:26.978Z,3.10
2023-03-13T16:43:54.129Z,2.80
2023-03-13T16:46:22.865Z,3.10
2023-03-13T16:48:50.367Z,3.00
2023-03-13T16:51:23.256Z,3.10
2023-03-13T16:53:52.718Z,3.10
2023-03-13T16:56:34.350Z,3.20
2023-03-13T16:59:07.609Z,3.00
2023-03-13T17:01:35.503Z,2.80
2023-03-13T17:04:02.491Z,3.30
2023-03-13T17:06:35.340Z,2.90
2023-03-13T17:09:05.194Z,3.20
2023-03-13T17:11:32.078Z,3.00
2023-03-13T17:13:59.258Z,3.90
2023-03-13T17:16:35.595Z,3.10
2023-03-13T17:19:06.123Z,3.40
2023-03-13T17:21:32.984Z,3.30
2023-03-13T17:24:00.135Z,3.20
2023-03-13T17:26:32.996Z,3.40
2023-03-13T17:29:00.972Z,3.10
2023-03-13T17:31:28.354Z,3.20
2023-03-13T17:33:55.682Z,3.30
2023-03-13T17:36:24.356Z,2.80
2023-03-13T17:39:01.454Z,3.10
2023-03-13T17:41:30.958Z,3.30
2023-03-13T17:43:59.015Z,3.10
2023-03-13T17:46:36.491Z,3.20
2023-03-13T17:49:03.769Z,3.30
2023-03-13T17:51:32.036Z,3.20
2023-03-13T17:53:59.002Z,3.60
2023-03-13T17:56:27.869Z,3.70
2023-03-13T17:58:57.988Z,3.80
2023-03-13T18:01:27.131Z,3.80
2023-03-13T18:03:54.285Z,3.80
2023-03-13T18:06:32.229Z,3.50
2023-03-13T18:09:02.195Z,3.70
2023-03-13T18:11:32.985Z,4.00
2023-03-13T18:14:00.582Z,4.20
2023-03-13T18:16:36.787Z,4.00
2023-03-13T18:19:26.406Z,4.00
2023-03-13T18:21:54.907Z,4.00
2023-03-13T18:26:53.929Z,4.30
2023-03-13T18:29:25.535Z,3.70
2023-03-13T18:31:54.687Z,3.60
2023-03-13T18:34:22.393Z,3.90
2023-03-13T18:36:54.561Z,5.00
2023-03-13T18:39:21.735Z,3.90
2023-03-13T18:41:49.070Z,3.90
2023-03-13T18:44:18.455Z,4.20
2023-03-13T18:46:45.610Z,4.90
2023-03-13T18:49:19.827Z,4.00
2023-03-13T18:51:48.655Z,3.80
2023-03-13T18:54:15.457Z,4.20
2023-03-13T18:56:43.624Z,4.50
2023-03-13T18:59:18.352Z,4.50
2023-03-13T19:01:47.768Z,4.50
2023-03-13T19:04:15.366Z,4.20
2023-03-13T19:06:42.357Z,4.50
2023-03-13T19:09:41.703Z,4.70
2023-03-13T19:12:04.313Z,4.00
2023-03-13T19:14:31.304Z,4.50
2023-03-13T19:16:58.247Z,4.30
2023-03-13T19:19:25.471Z,3.90
2023-03-13T19:21:55.084Z,4.20
2023-03-13T19:24:23.468Z,3.90
2023-03-13T19:26:51.442Z,4.30
2023-03-13T19:29:20.527Z,4.20
2023-03-13T19:31:47.360Z,4.80
2023-03-13T19:34:17.053Z,4.50
2023-03-13T19:36:46.669Z,4.20
2023-03-13T19:39:18.206Z,4.30
2023-03-13T19:41:47.303Z,4.20
2023-03-13T19:44:14.918Z,4.00
2023-03-13T19:46:42.958Z,4.30
2023-03-13T19:49:11.510Z,3.70
2023-03-13T19:51:39.992Z,4.00
2023-03-13T19:54:10.212Z,3.90
2023-03-13T19:56:45.458Z,4.10
2023-03-13T19:59:17.719Z,4.30
2023-03-13T20:01:44.480Z,3.90
2023-03-13T20:04:12.428Z,3.30
2023-03-13T20:06:39.904Z,4.40
2023-03-13T20:09:11.539Z,4.00
2023-03-13T20:11:38.422Z,4.00
2023-03-13T20:14:08.088Z,4.20
2023-03-13T20:16:39.035Z,4.30
2023-03-13T20:19:06.610Z,3.80
2023-03-13T20:21:40.700Z,4.20
2023-03-13T20:24:08.038Z,4.00
2023-03-13T20:26:34.801Z,4.40
2023-03-13T20:29:02.260Z,4.20
2023-03-13T20:31:30.489Z,4.40
2023-03-13T20:34:01.057Z,4.60
2023-03-13T20:36:27.938Z,3.90
2023-03-13T20:38:54.741Z,4.10
2023-03-13T20:41:25.313Z,4.00
2023-03-13T20:43:52.658Z,4.40
2023-03-13T20:46:19.934Z,4.30
2023-03-13T20:48:47.865Z,4.30
2023-03-13T20:51:15.065Z,3.90
2023-03-13T20:53:43.198Z,4.30
2023-03-13T20:56:10.947Z,4.20
2023-03-13T20:58:38.422Z,4.30
2023-03-13T21:01:06.417Z,4.60
2023-03-13T21:03:36.029Z,4.00
2023-03-13T21:06:14.727Z,4.40
2023-03-13T21:08:41.632Z,4.70
2023-03-13T21:11:17.324Z,4.20
2023-03-13T21:13:44.321Z,4.00
2023-03-13T21:16:12.578Z,4.90
2023-03-13T21:18:41.071Z,4.70
2023-03-13T21:21:10.371Z,4.20
2023-03-13T21:23:38.444Z,4.00
2023-03-13T21:26:05.532Z,4.70
2023-03-13T21:28:33.354Z,4.60
2023-03-13T21:31:15.410Z,4.30
2023-03-13T21:33:42.571Z,4.50
2023-03-13T21:36:09.677Z,4.10
2023-03-13T21:38:37.618Z,4.00
2023-03-13T21:41:11.263Z,3.90
2023-03-13T21:43:41.031Z,4.00
2023-03-13T21:46:11.579Z,4.20
2023-03-13T21:48:40.889Z,4.00
2023-03-13T21:51:08.641Z,3.90
2023-03-13T21:53:36.630Z,4.40
2023-03-13T21:56:03.813Z,4.30
2023-03-13T21:58:30.653Z,4.20
2023-03-13T22:00:57.848Z,3.50
2023-03-13T22:03:26.257Z,4.30
2023-03-13T22:05:58.200Z,4.20
2023-03-13T22:08:26.131Z,3.90
2023-03-13T22:10:54.458Z,3.60
2023-03-13T22:13:21.462Z,4.20
2023-03-13T22:15:50.050Z,3.70
2023-03-13T22:18:23.058Z,4.00
2023-03-13T22:20:50.487Z,3.40
2023-03-13T22:23:17.952Z,4.10
2023-03-13T22:25:47.574Z,3.90
2023-03-13T22:28:15.112Z,4.20
2023-03-13T22:30:43.285Z,3.60
2023-03-13T22:33:10.241Z,3.70
2023-03-13T22:35:37.454Z,3.70
2023-03-13T22:38:05.244Z,4.20
2023-03-13T22:40:33.046Z,3.60
2023-03-13T22:42:59.749Z,3.70
2023-03-13T22:45:26.568Z,3.90
2023-03-13T22:47:53.632Z,3.90
2023-03-13T22:50:25.080Z,4.10
2023-03-13T22:52:52.659Z,3.60
2023-03-13T22:55:21.665Z,3.80
2023-03-13T22:57:48.678Z,3.60
2023-03-13T23:00:15.933Z,3.90
2023-03-13T23:02:42.923Z,3.30
2023-03-13T23:05:09.819Z,3.70
2023-03-13T23:07:40.044Z,3.60
2023-03-13T23:10:08.727Z,3.90
2023-03-13T23:12:35.574Z,3.80
2023-03-13T23:15:02.648Z,4.10
2023-03-13T23:17:31.105Z,3.70
2023-03-13T23:20:00.549Z,3.30
2023-03-13T23:22:29.114Z,3.80
2023-03-13T23:24:55.824Z,3.70
2023-03-13T23:27:22.578Z,3.70
2023-03-13T23:29:51.250Z,4.00
2023-03-13T23:32:18.053Z,3.40
2023-03-13T23:34:47.398Z,3.30
2023-03-13T23:37:14.064Z,3.80
2023-03-13T23:39:40.883Z,3.60
2023-03-13T23:42:08.121Z,3.60
2023-03-13T23:44:34.885Z,3.60
2023-03-13T23:47:01.805Z,3.80
2023-03-13T23:49:28.755Z,4.10
2023-03-13T23:51:55.483Z,3.80
2023-03-13T23:54:22.757Z,3.60
2023-03-13T23:56:50.032Z,3.90
2023-03-13T23:59:17.781Z,3.20
